BNO42S ENGM-ENTC
Flight info
| Callsign | BNO42S |
|---|---|
| Flight time | 1h 29m |
| Altitude | 43000 |
| Route | RIBBE DCT GIGNI/N0495F410 DCT SOMUB DCT PENNO DCT ATWEG |
| Aircraft | C700/M-SBDGHM1RWXY/LB2 |
Departure
| Time | 2026-05-04 20:59 |
|---|---|
| Airport | Oslo-Gardermoen International Airport (ENGM) |
Arrival
| Time | 2026-05-04 22:29 |
|---|---|
| Airport | Tromsø Airport (ENTC) |
| Time | Latitude | Longitude | Altitude | Speed | Heading |
|---|---|---|---|---|---|
| 2026-05-04 20:39 | 60.20974 | 11.08049 | 672 ft | 0 kts | 168° |
| 2026-05-04 20:53 | 60.20973 | 11.08050 | 672 ft | 2 kts | 168° |
| 2026-05-04 20:53 | 60.20958 | 11.08152 | 672 ft | 14 kts | 81° |
| 2026-05-04 20:53 | 60.20969 | 11.08346 | 672 ft | 0 kts | 129° |
| 2026-05-04 20:54 | 60.20956 | 11.08363 | 672 ft | 8 kts | 148° |
| 2026-05-04 20:54 | 60.20864 | 11.08401 | 672 ft | 16 kts | 202° |
| 2026-05-04 20:54 | 60.20726 | 11.08316 | 672 ft | 25 kts | 193° |
| 2026-05-04 20:54 | 60.20647 | 11.08340 | 673 ft | 5 kts | 110° |
| 2026-05-04 20:55 | 60.20646 | 11.08343 | 673 ft | 0 kts | 107° |
| 2026-05-04 20:58 | 60.20646 | 11.08345 | 673 ft | 2 kts | 106° |
| 2026-05-04 20:58 | 60.20659 | 11.08448 | 673 ft | 14 kts | 66° |
| 2026-05-04 20:59 | 60.20641 | 11.08601 | 672 ft | 14 kts | 182° |
| 2026-05-04 20:59 | 60.20307 | 11.08408 | 671 ft | 97 kts | 195° |
| 2026-05-04 20:59 | 60.19372 | 11.07864 | 781 ft | 172 kts | 199° |
| 2026-05-04 20:59 | 60.18098 | 11.07039 | 1325 ft | 219 kts | 202° |
| 2026-05-04 21:00 | 60.16830 | 11.05452 | 2034 ft | 200 kts | 229° |
| 2026-05-04 21:00 | 60.15997 | 11.03337 | 2782 ft | 192 kts | 245° |
| 2026-05-04 21:00 | 60.15443 | 11.00939 | 3543 ft | 188 kts | 250° |
| 2026-05-04 21:00 | 60.14885 | 10.98537 | 4331 ft | 193 kts | 249° |
| 2026-05-04 21:01 | 60.14423 | 10.95997 | 5104 ft | 196 kts | 261° |
| 2026-05-04 21:01 | 60.14346 | 10.93257 | 5904 ft | 195 kts | 275° |
| 2026-05-04 21:01 | 60.14583 | 10.90564 | 6679 ft | 196 kts | 281° |
| 2026-05-04 21:01 | 60.14831 | 10.87873 | 7449 ft | 196 kts | 279° |
| 2026-05-04 21:02 | 60.15233 | 10.85254 | 8230 ft | 198 kts | 293° |
| 2026-05-04 21:02 | 60.16005 | 10.82831 | 9059 ft | 221 kts | 306° |
| 2026-05-04 21:02 | 60.17259 | 10.80659 | 9891 ft | 257 kts | 322° |
| 2026-05-04 21:02 | 60.19031 | 10.79268 | 10667 ft | 294 kts | 342° |
| 2026-05-04 21:03 | 60.21156 | 10.79184 | 11451 ft | 315 kts | 359° |
| 2026-05-04 21:03 | 60.23318 | 10.80385 | 12235 ft | 332 kts | 15° |
| 2026-05-04 21:03 | 60.25307 | 10.82984 | 13028 ft | 353 kts | 34° |
| 2026-05-04 21:03 | 60.27108 | 10.86573 | 13833 ft | 365 kts | 38° |
| 2026-05-04 21:04 | 60.28894 | 10.90288 | 14577 ft | 374 kts | 38° |
| 2026-05-04 21:04 | 60.30727 | 10.94061 | 15391 ft | 378 kts | 38° |
| 2026-05-04 21:04 | 60.32597 | 10.97844 | 16164 ft | 382 kts | 37° |
| 2026-05-04 21:04 | 60.34498 | 11.01694 | 16964 ft | 392 kts | 37° |
| 2026-05-04 21:05 | 60.36463 | 11.05716 | 17802 ft | 402 kts | 36° |
| 2026-05-04 21:05 | 60.38413 | 11.09732 | 18534 ft | 410 kts | 36° |
| 2026-05-04 21:05 | 60.40458 | 11.13935 | 19269 ft | 415 kts | 36° |
| 2026-05-04 21:05 | 60.42506 | 11.18068 | 20007 ft | 415 kts | 33° |
| 2026-05-04 21:06 | 60.44769 | 11.21553 | 20760 ft | 408 kts | 21° |
| 2026-05-04 21:06 | 60.47260 | 11.24261 | 21543 ft | 402 kts | 11° |
| 2026-05-04 21:06 | 60.49872 | 11.26212 | 22349 ft | 401 kts | 6° |
| 2026-05-04 21:06 | 60.52481 | 11.28040 | 23166 ft | 405 kts | 6° |
| 2026-05-04 21:07 | 60.55154 | 11.29951 | 23891 ft | 409 kts | 6° |
| 2026-05-04 21:07 | 60.57857 | 11.31885 | 24691 ft | 415 kts | 6° |
| 2026-05-04 21:07 | 60.60605 | 11.33831 | 25427 ft | 422 kts | 6° |
| 2026-05-04 21:07 | 60.63395 | 11.35818 | 26181 ft | 427 kts | 6° |
| 2026-05-04 21:08 | 60.66251 | 11.37871 | 26967 ft | 431 kts | 7° |
| 2026-05-04 21:08 | 60.69044 | 11.39881 | 27750 ft | 433 kts | 7° |
| 2026-05-04 21:08 | 60.71941 | 11.41956 | 28578 ft | 437 kts | 7° |
| 2026-05-04 21:08 | 60.74845 | 11.43636 | 29422 ft | 429 kts | 359° |
| 2026-05-04 21:09 | 60.77773 | 11.44503 | 30209 ft | 421 kts | 352° |
| 2026-05-04 21:09 | 60.80700 | 11.44847 | 30947 ft | 422 kts | 351° |
| 2026-05-04 21:09 | 60.83647 | 11.45209 | 31701 ft | 426 kts | 352° |
| 2026-05-04 21:09 | 60.86607 | 11.45596 | 32550 ft | 428 kts | 352° |
| 2026-05-04 21:10 | 60.89583 | 11.45969 | 33343 ft | 428 kts | 352° |
| 2026-05-04 21:10 | 60.92596 | 11.46334 | 34095 ft | 429 kts | 353° |
| 2026-05-04 21:10 | 60.95580 | 11.46702 | 34783 ft | 429 kts | 353° |
| 2026-05-04 21:10 | 60.98551 | 11.47077 | 35491 ft | 428 kts | 354° |
| 2026-05-04 21:11 | 61.01525 | 11.47452 | 36215 ft | 426 kts | 355° |
| 2026-05-04 21:11 | 61.04480 | 11.47820 | 36968 ft | 423 kts | 355° |
| 2026-05-04 21:11 | 61.07408 | 11.48177 | 37743 ft | 419 kts | 355° |
| 2026-05-04 21:11 | 61.10296 | 11.48218 | 38521 ft | 411 kts | 353° |
| 2026-05-04 21:12 | 61.13138 | 11.48208 | 39159 ft | 405 kts | 353° |
| 2026-05-04 21:12 | 61.15936 | 11.48225 | 39813 ft | 399 kts | 354° |
| 2026-05-04 21:12 | 61.18689 | 11.48246 | 40485 ft | 392 kts | 354° |
| 2026-05-04 21:12 | 61.21422 | 11.48250 | 40722 ft | 398 kts | 354° |
| 2026-05-04 21:13 | 61.24237 | 11.48241 | 40747 ft | 410 kts | 354° |
| 2026-05-04 21:13 | 61.27165 | 11.48251 | 40762 ft | 422 kts | 355° |
| 2026-05-04 21:13 | 61.30103 | 11.48271 | 40760 ft | 433 kts | 355° |
| 2026-05-04 21:13 | 61.33156 | 11.48284 | 40756 ft | 445 kts | 355° |
| 2026-05-04 21:14 | 61.39495 | 11.48301 | 40761 ft | 466 kts | 355° |
| 2026-05-04 21:14 | 61.46123 | 11.48330 | 40759 ft | 486 kts | 355° |
| 2026-05-04 21:15 | 61.53011 | 11.48354 | 40757 ft | 500 kts | 355° |
| 2026-05-04 21:15 | 61.59960 | 11.48387 | 40758 ft | 496 kts | 355° |
| 2026-05-04 21:16 | 61.66831 | 11.48407 | 40757 ft | 491 kts | 355° |
| 2026-05-04 21:16 | 61.73659 | 11.48432 | 40753 ft | 491 kts | 355° |
| 2026-05-04 21:17 | 61.80550 | 11.48453 | 40766 ft | 499 kts | 355° |
| 2026-05-04 21:17 | 61.87430 | 11.48488 | 41029 ft | 486 kts | 355° |
| 2026-05-04 21:18 | 61.90725 | 11.48515 | 41507 ft | 461 kts | 355° |
| 2026-05-04 21:18 | 61.93886 | 11.48526 | 41973 ft | 438 kts | 355° |
| 2026-05-04 21:18 | 61.96898 | 11.48522 | 42441 ft | 428 kts | 355° |
| 2026-05-04 21:18 | 61.99894 | 11.48554 | 42568 ft | 435 kts | 358° |
| 2026-05-04 21:19 | 62.02941 | 11.49192 | 42701 ft | 443 kts | 2° |
| 2026-05-04 21:19 | 62.06018 | 11.49920 | 42781 ft | 450 kts | 2° |
| 2026-05-04 21:19 | 62.12361 | 11.51314 | 42772 ft | 466 kts | 2° |
| 2026-05-04 21:20 | 62.18960 | 11.52852 | 42771 ft | 481 kts | 2° |
| 2026-05-04 21:20 | 62.25717 | 11.54389 | 42767 ft | 495 kts | 2° |
| 2026-05-04 21:21 | 62.32647 | 11.55998 | 42764 ft | 504 kts | 2° |
| 2026-05-04 21:21 | 62.39601 | 11.57612 | 42762 ft | 501 kts | 2° |
| 2026-05-04 21:22 | 62.46512 | 11.59220 | 42751 ft | 498 kts | 2° |
| 2026-05-04 21:22 | 62.53391 | 11.60830 | 42744 ft | 496 kts | 2° |
| 2026-05-04 21:23 | 62.60265 | 11.62445 | 42745 ft | 497 kts | 2° |
| 2026-05-04 21:23 | 62.65997 | 11.63800 | 42762 ft | 499 kts | 1° |
| 2026-05-04 21:24 | 62.72929 | 11.65441 | 42748 ft | 502 kts | 1° |
| 2026-05-04 21:24 | 62.79901 | 11.67104 | 42752 ft | 505 kts | 1° |
| 2026-05-04 21:25 | 62.86883 | 11.68776 | 42751 ft | 504 kts | 1° |
| 2026-05-04 21:25 | 62.93846 | 11.70451 | 42744 ft | 502 kts | 1° |
| 2026-05-04 21:26 | 63.00782 | 11.72128 | 42747 ft | 500 kts | 1° |
| 2026-05-04 21:26 | 63.07693 | 11.73806 | 42737 ft | 499 kts | 1° |
| 2026-05-04 21:27 | 63.14593 | 11.75489 | 42731 ft | 500 kts | 1° |
| 2026-05-04 21:27 | 63.21522 | 11.77188 | 42733 ft | 501 kts | 1° |
| 2026-05-04 21:28 | 63.28481 | 11.78901 | 42729 ft | 503 kts | 2° |
| 2026-05-04 21:28 | 63.35401 | 11.81109 | 42718 ft | 506 kts | 10° |
| 2026-05-04 21:29 | 63.42103 | 11.86094 | 42722 ft | 508 kts | 15° |
| 2026-05-04 21:29 | 63.48766 | 11.91285 | 42720 ft | 505 kts | 15° |
| 2026-05-04 21:30 | 63.55406 | 11.96506 | 42748 ft | 506 kts | 15° |
| 2026-05-04 21:30 | 63.62085 | 12.01776 | 42719 ft | 509 kts | 15° |
| 2026-05-04 21:31 | 63.72136 | 12.09762 | 42720 ft | 512 kts | 15° |
| 2026-05-04 21:32 | 63.78803 | 12.15090 | 42719 ft | 511 kts | 15° |
| 2026-05-04 21:32 | 63.85487 | 12.20461 | 42726 ft | 509 kts | 16° |
| 2026-05-04 21:33 | 63.92158 | 12.25846 | 42702 ft | 507 kts | 16° |
| 2026-05-04 21:33 | 63.98801 | 12.31238 | 42890 ft | 506 kts | 16° |
| 2026-05-04 21:34 | 64.05420 | 12.36635 | 42908 ft | 505 kts | 16° |
| 2026-05-04 21:34 | 64.12046 | 12.42067 | 42896 ft | 507 kts | 16° |
| 2026-05-04 21:35 | 64.18694 | 12.47544 | 42855 ft | 509 kts | 16° |
| 2026-05-04 21:35 | 64.25362 | 12.53067 | 42800 ft | 510 kts | 16° |
| 2026-05-04 21:36 | 64.32054 | 12.58637 | 42740 ft | 511 kts | 16° |
| 2026-05-04 21:36 | 64.38739 | 12.64231 | 42689 ft | 510 kts | 16° |
| 2026-05-04 21:37 | 64.45399 | 12.69832 | 42679 ft | 508 kts | 17° |
| 2026-05-04 21:37 | 64.52029 | 12.75440 | 42679 ft | 506 kts | 17° |
| 2026-05-04 21:38 | 64.58625 | 12.81044 | 42669 ft | 504 kts | 17° |
| 2026-05-04 21:38 | 64.65211 | 12.86669 | 42671 ft | 504 kts | 17° |
| 2026-05-04 21:39 | 64.71813 | 12.92339 | 42667 ft | 506 kts | 17° |
| 2026-05-04 21:39 | 64.78435 | 12.98053 | 42665 ft | 508 kts | 17° |
| 2026-05-04 21:40 | 64.85075 | 13.03816 | 42667 ft | 509 kts | 17° |
| 2026-05-04 21:40 | 64.91722 | 13.09614 | 42656 ft | 510 kts | 17° |
| 2026-05-04 21:41 | 64.98365 | 13.15440 | 42654 ft | 508 kts | 17° |
| 2026-05-04 21:41 | 65.04968 | 13.21260 | 42650 ft | 506 kts | 18° |
| 2026-05-04 21:42 | 65.11560 | 13.27103 | 42651 ft | 504 kts | 18° |
| 2026-05-04 21:42 | 65.18121 | 13.32949 | 42645 ft | 503 kts | 18° |
| 2026-05-04 21:43 | 65.24680 | 13.38823 | 42628 ft | 505 kts | 18° |
| 2026-05-04 21:43 | 65.31277 | 13.44763 | 42631 ft | 508 kts | 18° |
| 2026-05-04 21:44 | 65.37906 | 13.50773 | 42646 ft | 510 kts | 18° |
| 2026-05-04 21:44 | 65.44533 | 13.56794 | 42642 ft | 508 kts | 18° |
| 2026-05-04 21:45 | 65.51131 | 13.62838 | 42640 ft | 506 kts | 18° |
| 2026-05-04 21:45 | 65.57710 | 13.68890 | 42638 ft | 505 kts | 18° |
| 2026-05-04 21:46 | 65.64261 | 13.74950 | 42645 ft | 504 kts | 19° |
| 2026-05-04 21:46 | 65.70810 | 13.81044 | 42635 ft | 503 kts | 19° |
| 2026-05-04 21:47 | 65.77350 | 13.87158 | 42632 ft | 505 kts | 19° |
| 2026-05-04 21:47 | 65.83917 | 13.93335 | 42632 ft | 506 kts | 19° |
| 2026-05-04 21:48 | 65.90501 | 13.99560 | 42629 ft | 508 kts | 19° |
| 2026-05-04 21:48 | 65.97102 | 14.05837 | 42629 ft | 509 kts | 19° |
| 2026-05-04 21:49 | 66.03683 | 14.12131 | 42625 ft | 506 kts | 19° |
| 2026-05-04 21:49 | 66.10234 | 14.18428 | 42617 ft | 504 kts | 19° |
| 2026-05-04 21:50 | 66.16756 | 14.24734 | 42613 ft | 502 kts | 19° |
| 2026-05-04 21:50 | 66.23272 | 14.31066 | 42610 ft | 504 kts | 19° |
| 2026-05-04 21:51 | 66.29810 | 14.37458 | 42612 ft | 506 kts | 20° |
| 2026-05-04 21:51 | 66.36381 | 14.43918 | 42615 ft | 508 kts | 20° |
| 2026-05-04 21:52 | 66.42962 | 14.50424 | 42616 ft | 509 kts | 20° |
| 2026-05-04 21:52 | 66.49532 | 14.56958 | 42611 ft | 507 kts | 20° |
| 2026-05-04 21:53 | 66.56085 | 14.63510 | 42598 ft | 506 kts | 20° |
| 2026-05-04 21:53 | 66.62609 | 14.70071 | 42602 ft | 504 kts | 20° |
| 2026-05-04 21:54 | 66.69066 | 14.76602 | 42593 ft | 503 kts | 20° |
| 2026-05-04 21:54 | 66.75612 | 14.83259 | 42594 ft | 505 kts | 20° |
| 2026-05-04 21:55 | 66.82139 | 14.89936 | 42599 ft | 506 kts | 20° |
| 2026-05-04 21:55 | 66.88634 | 14.96619 | 42594 ft | 508 kts | 20° |
| 2026-05-04 21:56 | 66.95331 | 15.03550 | 42604 ft | 509 kts | 21° |
| 2026-05-04 21:56 | 67.01805 | 15.10289 | 42599 ft | 509 kts | 21° |
| 2026-05-04 21:57 | 67.08343 | 15.17141 | 42603 ft | 507 kts | 21° |
| 2026-05-04 21:57 | 67.14865 | 15.24000 | 42597 ft | 506 kts | 21° |
| 2026-05-04 21:58 | 67.21378 | 15.30904 | 42603 ft | 504 kts | 21° |
| 2026-05-04 21:58 | 67.27886 | 15.37838 | 42597 ft | 503 kts | 21° |
| 2026-05-04 21:59 | 67.34359 | 15.44775 | 42599 ft | 505 kts | 21° |
| 2026-05-04 21:59 | 67.39808 | 15.50648 | 42604 ft | 506 kts | 21° |
| 2026-05-04 22:00 | 67.46324 | 15.57708 | 42605 ft | 509 kts | 21° |
| 2026-05-04 22:00 | 67.52848 | 15.64821 | 42609 ft | 508 kts | 21° |
| 2026-05-04 22:01 | 67.59325 | 15.71922 | 42600 ft | 507 kts | 21° |
| 2026-05-04 22:01 | 67.65820 | 15.79087 | 42600 ft | 506 kts | 21° |
| 2026-05-04 22:02 | 67.72303 | 15.86282 | 42587 ft | 505 kts | 21° |
| 2026-05-04 22:02 | 67.78814 | 15.93550 | 42585 ft | 504 kts | 22° |
| 2026-05-04 22:03 | 67.85268 | 16.00801 | 42576 ft | 503 kts | 22° |
| 2026-05-04 22:03 | 67.91670 | 16.08035 | 42575 ft | 502 kts | 22° |
| 2026-05-04 22:04 | 67.97660 | 16.16079 | 42564 ft | 504 kts | 28° |
| 2026-05-04 22:04 | 68.00747 | 16.20623 | 42094 ft | 507 kts | 28° |
| 2026-05-04 22:04 | 68.03828 | 16.25116 | 41650 ft | 500 kts | 27° |
| 2026-05-04 22:04 | 68.06849 | 16.29511 | 41281 ft | 489 kts | 27° |
| 2026-05-04 22:05 | 68.09801 | 16.33849 | 40913 ft | 479 kts | 28° |
| 2026-05-04 22:05 | 68.12623 | 16.38025 | 40562 ft | 471 kts | 28° |
| 2026-05-04 22:05 | 68.15454 | 16.42213 | 40193 ft | 459 kts | 28° |
| 2026-05-04 22:05 | 68.18282 | 16.46390 | 39839 ft | 470 kts | 28° |
| 2026-05-04 22:06 | 68.21179 | 16.50688 | 39513 ft | 483 kts | 28° |
| 2026-05-04 22:06 | 68.24149 | 16.55121 | 39190 ft | 491 kts | 28° |
| 2026-05-04 22:06 | 68.27140 | 16.59601 | 38867 ft | 491 kts | 28° |
| 2026-05-04 22:06 | 68.30118 | 16.64066 | 38517 ft | 488 kts | 28° |
| 2026-05-04 22:07 | 68.33082 | 16.68521 | 38067 ft | 487 kts | 28° |
| 2026-05-04 22:07 | 68.36030 | 16.72970 | 37552 ft | 484 kts | 28° |
| 2026-05-04 22:07 | 68.38962 | 16.77408 | 37043 ft | 481 kts | 28° |
| 2026-05-04 22:07 | 68.41873 | 16.81824 | 36539 ft | 478 kts | 28° |
| 2026-05-04 22:08 | 68.44767 | 16.86225 | 36050 ft | 477 kts | 28° |
| 2026-05-04 22:08 | 68.47666 | 16.90652 | 35583 ft | 478 kts | 28° |
| 2026-05-04 22:08 | 68.50568 | 16.95097 | 35118 ft | 479 kts | 28° |
| 2026-05-04 22:08 | 68.53476 | 16.99563 | 34524 ft | 482 kts | 28° |
| 2026-05-04 22:09 | 68.56406 | 17.04074 | 33849 ft | 484 kts | 29° |
| 2026-05-04 22:09 | 68.59326 | 17.08587 | 33124 ft | 481 kts | 29° |
| 2026-05-04 22:09 | 68.62231 | 17.13088 | 32342 ft | 477 kts | 29° |
| 2026-05-04 22:09 | 68.65104 | 17.17554 | 31582 ft | 473 kts | 29° |
| 2026-05-04 22:10 | 68.67954 | 17.21998 | 30709 ft | 471 kts | 30° |
| 2026-05-04 22:10 | 68.70808 | 17.26459 | 29756 ft | 471 kts | 30° |
| 2026-05-04 22:10 | 68.73654 | 17.30923 | 28629 ft | 469 kts | 30° |
| 2026-05-04 22:10 | 68.76465 | 17.35345 | 27507 ft | 461 kts | 30° |
| 2026-05-04 22:11 | 68.79208 | 17.39671 | 26412 ft | 447 kts | 30° |
| 2026-05-04 22:11 | 68.81861 | 17.43866 | 25364 ft | 432 kts | 30° |
| 2026-05-04 22:11 | 68.84437 | 17.47952 | 24344 ft | 420 kts | 30° |
| 2026-05-04 22:11 | 68.86934 | 17.51926 | 23370 ft | 409 kts | 31° |
| 2026-05-04 22:12 | 68.89374 | 17.55818 | 22259 ft | 401 kts | 31° |
| 2026-05-04 22:12 | 68.91773 | 17.59653 | 21134 ft | 394 kts | 31° |
| 2026-05-04 22:12 | 68.94128 | 17.63426 | 20044 ft | 388 kts | 31° |
| 2026-05-04 22:12 | 68.96449 | 17.67157 | 18979 ft | 382 kts | 31° |
| 2026-05-04 22:13 | 68.98699 | 17.70781 | 17978 ft | 377 kts | 31° |
| 2026-05-04 22:13 | 69.00953 | 17.74419 | 16863 ft | 372 kts | 31° |
| 2026-05-04 22:13 | 69.03170 | 17.78007 | 15755 ft | 363 kts | 30° |
| 2026-05-04 22:13 | 69.05348 | 17.81540 | 14685 ft | 352 kts | 30° |
| 2026-05-04 22:14 | 69.07391 | 17.84956 | 13671 ft | 342 kts | 32° |
| 2026-05-04 22:14 | 69.09397 | 17.88403 | 12588 ft | 335 kts | 31° |
| 2026-05-04 22:14 | 69.11379 | 17.91733 | 11495 ft | 329 kts | 31° |
| 2026-05-04 22:14 | 69.13323 | 17.95018 | 10438 ft | 324 kts | 31° |
| 2026-05-04 22:15 | 69.15083 | 17.98890 | 9367 ft | 297 kts | 49° |
| 2026-05-04 22:15 | 69.15906 | 18.03383 | 8213 ft | 240 kts | 74° |
| 2026-05-04 22:15 | 69.16213 | 18.08239 | 7184 ft | 266 kts | 81° |
| 2026-05-04 22:15 | 69.16457 | 18.13502 | 6224 ft | 276 kts | 82° |
| 2026-05-04 22:16 | 69.16691 | 18.18898 | 5310 ft | 280 kts | 82° |
| 2026-05-04 22:16 | 69.16914 | 18.24220 | 4961 ft | 265 kts | 82° |
| 2026-05-04 22:16 | 69.17122 | 18.29223 | 4692 ft | 251 kts | 82° |
| 2026-05-04 22:16 | 69.17317 | 18.33975 | 4525 ft | 236 kts | 82° |
| 2026-05-04 22:17 | 69.17538 | 18.38352 | 4509 ft | 217 kts | 74° |
| 2026-05-04 22:17 | 69.18047 | 18.42196 | 4516 ft | 205 kts | 66° |
| 2026-05-04 22:17 | 69.18613 | 18.45846 | 4515 ft | 204 kts | 65° |
| 2026-05-04 22:17 | 69.19188 | 18.49528 | 4517 ft | 207 kts | 65° |
| 2026-05-04 22:18 | 69.19772 | 18.53262 | 4523 ft | 209 kts | 65° |
| 2026-05-04 22:18 | 69.20405 | 18.56970 | 4522 ft | 210 kts | 59° |
| 2026-05-04 22:18 | 69.21283 | 18.60216 | 4509 ft | 209 kts | 40° |
| 2026-05-04 22:18 | 69.22556 | 18.62139 | 4527 ft | 209 kts | 18° |
| 2026-05-04 22:19 | 69.23958 | 18.63021 | 4663 ft | 206 kts | 11° |
| 2026-05-04 22:19 | 69.25371 | 18.63778 | 4795 ft | 208 kts | 12° |
| 2026-05-04 22:19 | 69.26797 | 18.64674 | 4930 ft | 212 kts | 14° |
| 2026-05-04 22:19 | 69.28249 | 18.65625 | 4993 ft | 217 kts | 14° |
| 2026-05-04 22:20 | 69.29721 | 18.66578 | 4991 ft | 214 kts | 13° |
| 2026-05-04 22:20 | 69.31105 | 18.67466 | 5001 ft | 193 kts | 14° |
| 2026-05-04 22:20 | 69.32354 | 18.68270 | 4980 ft | 175 kts | 14° |
| 2026-05-04 22:20 | 69.33503 | 18.69013 | 4984 ft | 166 kts | 14° |
| 2026-05-04 22:21 | 69.34626 | 18.69740 | 4986 ft | 166 kts | 14° |
| 2026-05-04 22:21 | 69.35759 | 18.70477 | 4989 ft | 168 kts | 14° |
| 2026-05-04 22:21 | 69.36909 | 18.71224 | 4994 ft | 170 kts | 14° |
| 2026-05-04 22:21 | 69.38057 | 18.72036 | 4996 ft | 170 kts | 15° |
| 2026-05-04 22:22 | 69.39207 | 18.72852 | 4995 ft | 170 kts | 14° |
| 2026-05-04 22:22 | 69.40363 | 18.73577 | 4995 ft | 170 kts | 13° |
| 2026-05-04 22:22 | 69.41517 | 18.74335 | 4995 ft | 170 kts | 14° |
| 2026-05-04 22:22 | 69.42671 | 18.75075 | 4992 ft | 169 kts | 13° |
| 2026-05-04 22:23 | 69.43819 | 18.75814 | 4993 ft | 169 kts | 14° |
| 2026-05-04 22:23 | 69.44964 | 18.76561 | 4993 ft | 169 kts | 14° |
| 2026-05-04 22:23 | 69.46112 | 18.77311 | 4994 ft | 169 kts | 14° |
| 2026-05-04 22:23 | 69.47261 | 18.78061 | 4996 ft | 170 kts | 13° |
| 2026-05-04 22:24 | 69.48414 | 18.78809 | 4978 ft | 170 kts | 14° |
| 2026-05-04 22:24 | 69.49587 | 18.79581 | 4765 ft | 163 kts | 14° |
| 2026-05-04 22:24 | 69.50622 | 18.80243 | 4425 ft | 145 kts | 13° |
| 2026-05-04 22:24 | 69.51571 | 18.80864 | 4187 ft | 139 kts | 13° |
| 2026-05-04 22:25 | 69.52529 | 18.81491 | 3957 ft | 143 kts | 13° |
| 2026-05-04 22:25 | 69.53504 | 18.82127 | 3709 ft | 145 kts | 14° |
| 2026-05-04 22:25 | 69.54489 | 18.82775 | 3460 ft | 146 kts | 14° |
| 2026-05-04 22:25 | 69.55474 | 18.83422 | 3195 ft | 145 kts | 14° |
| 2026-05-04 22:26 | 69.56448 | 18.84061 | 2930 ft | 142 kts | 14° |
| 2026-05-04 22:26 | 69.57408 | 18.84693 | 2668 ft | 141 kts | 14° |
| 2026-05-04 22:26 | 69.58358 | 18.85314 | 2423 ft | 139 kts | 14° |
| 2026-05-04 22:26 | 69.59292 | 18.85930 | 2162 ft | 139 kts | 14° |
| 2026-05-04 22:27 | 69.60230 | 18.86546 | 1906 ft | 138 kts | 14° |
| 2026-05-04 22:27 | 69.61158 | 18.87158 | 1733 ft | 133 kts | 14° |
| 2026-05-04 22:27 | 69.62107 | 18.87781 | 1471 ft | 140 kts | 14° |
| 2026-05-04 22:27 | 69.63056 | 18.88406 | 1196 ft | 137 kts | 14° |
| 2026-05-04 22:28 | 69.63984 | 18.89011 | 953 ft | 136 kts | 13° |
| 2026-05-04 22:28 | 69.64906 | 18.89557 | 671 ft | 130 kts | 12° |
| 2026-05-04 22:28 | 69.65722 | 18.90038 | 468 ft | 124 kts | 14° |
| 2026-05-04 22:28 | 69.66544 | 18.90675 | 245 ft | 121 kts | 16° |
| 2026-05-04 22:29 | 69.67327 | 18.91167 | 57 ft | 117 kts | 16° |
| 2026-05-04 22:29 | 69.68025 | 18.91652 | 29 ft | 81 kts | 16° |
| 2026-05-04 22:29 | 69.68238 | 18.91795 | 22 ft | 13 kts | 11° |
| 2026-05-04 22:29 | 69.68304 | 18.91808 | 22 ft | 7 kts | 332° |
| 2026-05-04 22:30 | 69.68328 | 18.91646 | 22 ft | 10 kts | 285° |
| 2026-05-04 22:30 | 69.68385 | 18.91501 | 21 ft | 11 kts | 357° |
| 2026-05-04 22:30 | 69.68480 | 18.91515 | 20 ft | 18 kts | 7° |
| 2026-05-04 22:30 | 69.68576 | 18.91519 | 22 ft | 10 kts | 314° |